Airfield :
LOGIN :

Register | Disclaimer

   EN    FR    IT 

 










Legend :    VFR   Marginal VFR   IFR   Intensive IFR   Very Intensive IFR
Visi :
Ceiling :
>= 8 km
>= 3000ft
5 to 8 km
1000 to 3000 ft
1500m to 5 km
500 to 1000 ft
800 to 1500m
200 to 500 ft
< 800m
< 200 ft
Symbols :   Thunderstorms  Fog  Heavy snow  Heavy precipitations  Wind > 20 kt
SIGMETs :     Misc.  Thunderstorms  Icing  Turbulence  Mountain Waves  Volcanic Ashes






- Airport Elevation : 74 ft
- IATA code : NDZ


ETMN - Cuxhaven Nordholz Sea AB

CURRENT METAR :
  • 170452Z 17004KT 6000 SCT050 BKN070 12/12 Q1009 WHT WHT BECMG BLU

EXPIRED METARs :
  • 170420Z 16006KT 2000 VCFG FEW001 SCT070 BKN120 12/11 Q1008 YLO YLO BECMG WHT
  • 170346Z 16005KT 1100 VCFG FEW001 BKN120 12/11 Q1009 AMB
  • 170320Z 17005KT 2000 VCFG FEW001 BKN140 BKN190 12/11 Q1009 YLO
  • 170258Z 16005KT 2000 VCFG FEW001 SCT150 BKN200 11/11 Q1008 YLO
  • 170220Z 16003KT 0050 FG SCT160 BKN200 11/11 Q1008 RED
  • 170153Z 20004KT 0050 FG BKN180 11/11 Q1008 RED
  • 170120Z 20004KT 9999 MIFG BKN190 12/11 Q1008 BLU
  • 170020Z 21005KT 9999 SCT200 12/11 Q1008 BLU+

TAF TAF ETMN
Valid from the 17 at 05:00 until the 17 at 14:00 UTC


170412Z 1705/1714 18005KT 5000 MIFG SCT050 BKN100
BECMG 1705/1706 20010KT 9999 NSW SCT050 BKN100
TEMPO 1705/1714 23010G20KT 4500 SHRA SCT020 BKN030CB
PROB30 1705/1714 23010G25KT 3000 TSRA BKN015 BKN030CB



MET'MAP, your aeronautical weather chart ! - Copyright ORBIFLY December 2007 - Disclaimer

ORBIFLY MET'MAP TEAM :

Programming & Development : Alexandra Zaïnal
Original concept : Baudouin d'Aumeries
Technical & hardware support : Manuel Goepfert
Assistance : Marc-Olivier Méhu




SOURCES & CREDITS :

   NOAA